sensor_id;sensor_type;location;lat;lon;timestamp;P1;durP1;ratioP1;P2;durP2;ratioP2
5931;SDS011;2991;49.368;8.528;2022-09-09T00:00:15;3.13;;;1.40;;
5931;SDS011;2991;49.368;8.528;2022-09-09T00:02:47;1.13;;;1.03;;
5931;SDS011;2991;49.368;8.528;2022-09-09T00:05:23;1.23;;;1.00;;
5931;SDS011;2991;49.368;8.528;2022-09-09T00:07:57;2.50;;;1.10;;
5931;SDS011;2991;49.368;8.528;2022-09-09T00:10:59;1.80;;;1.43;;
5931;SDS011;2991;49.368;8.528;2022-09-09T00:16:21;1.20;;;1.20;;
5931;SDS011;2991;49.368;8.528;2022-09-09T00:21:37;1.10;;;1.00;;
5931;SDS011;2991;49.368;8.528;2022-09-09T00:24:09;2.63;;;1.40;;
5931;SDS011;2991;49.368;8.528;2022-09-09T00:26:43;1.87;;;1.23;;
5931;SDS011;2991;49.368;8.528;2022-09-09T00:31:37;1.43;;;1.03;;
5931;SDS011;2991;49.368;8.528;2022-09-09T00:34:18;2.63;;;1.03;;
5931;SDS011;2991;49.368;8.528;2022-09-09T00:36:48;2.07;;;1.20;;
5931;SDS011;2991;49.368;8.528;2022-09-09T00:42:14;1.70;;;1.27;;
5931;SDS011;2991;49.368;8.528;2022-09-09T00:44:46;1.93;;;1.27;;
5931;SDS011;2991;49.368;8.528;2022-09-09T00:58:39;1.03;;;0.80;;
5931;SDS011;2991;49.368;8.528;2022-09-09T01:01:11;1.10;;;0.83;;
5931;SDS011;2991;49.368;8.528;2022-09-09T01:03:40;2.07;;;1.30;;
5931;SDS011;2991;49.368;8.528;2022-09-09T01:06:20;1.17;;;1.00;;
5931;SDS011;2991;49.368;8.528;2022-09-09T01:11:49;0.97;;;0.90;;
5931;SDS011;2991;49.368;8.528;2022-09-09T01:17:03;1.53;;;1.30;;
5931;SDS011;2991;49.368;8.528;2022-09-09T01:19:39;3.50;;;1.23;;
5931;SDS011;2991;49.368;8.528;2022-09-09T01:22:22;2.47;;;1.13;;
5931;SDS011;2991;49.368;8.528;2022-09-09T01:27:53;1.27;;;1.00;;
5931;SDS011;2991;49.368;8.528;2022-09-09T01:30:23;1.37;;;1.10;;
5931;SDS011;2991;49.368;8.528;2022-09-09T01:32:55;1.73;;;1.50;;
5931;SDS011;2991;49.368;8.528;2022-09-09T01:38:11;1.33;;;1.20;;
5931;SDS011;2991;49.368;8.528;2022-09-09T01:40:37;3.30;;;1.30;;
5931;SDS011;2991;49.368;8.528;2022-09-09T01:43:03;1.10;;;1.00;;
5931;SDS011;2991;49.368;8.528;2022-09-09T01:45:29;1.33;;;1.10;;
5931;SDS011;2991;49.368;8.528;2022-09-09T01:47:56;1.40;;;1.10;;
5931;SDS011;2991;49.368;8.528;2022-09-09T01:50:22;1.10;;;1.00;;
5931;SDS011;2991;49.368;8.528;2022-09-09T01:52:49;1.30;;;1.20;;
5931;SDS011;2991;49.368;8.528;2022-09-09T01:55:21;1.60;;;0.90;;
5931;SDS011;2991;49.368;8.528;2022-09-09T01:58:13;1.23;;;0.93;;
5931;SDS011;2991;49.368;8.528;2022-09-09T02:03:33;1.40;;;0.90;;
5931;SDS011;2991;49.368;8.528;2022-09-09T02:06:06;1.10;;;1.00;;
5931;SDS011;2991;49.368;8.528;2022-09-09T02:08:49;1.00;;;1.00;;
5931;SDS011;2991;49.368;8.528;2022-09-09T02:11:18;1.93;;;1.17;;
5931;SDS011;2991;49.368;8.528;2022-09-09T02:13:47;1.57;;;1.03;;
5931;SDS011;2991;49.368;8.528;2022-09-09T02:18:53;2.20;;;1.17;;
5931;SDS011;2991;49.368;8.528;2022-09-09T02:23:54;2.73;;;1.23;;
5931;SDS011;2991;49.368;8.528;2022-09-09T02:26:23;3.00;;;0.83;;
5931;SDS011;2991;49.368;8.528;2022-09-09T02:28:50;1.40;;;0.93;;
5931;SDS011;2991;49.368;8.528;2022-09-09T02:31:18;3.07;;;1.30;;
5931;SDS011;2991;49.368;8.528;2022-09-09T02:33:47;1.37;;;1.00;;
5931;SDS011;2991;49.368;8.528;2022-09-09T02:36:23;1.03;;;1.00;;
5931;SDS011;2991;49.368;8.528;2022-09-09T02:38:51;1.47;;;1.37;;
5931;SDS011;2991;49.368;8.528;2022-09-09T02:41:37;1.00;;;0.90;;
5931;SDS011;2991;49.368;8.528;2022-09-09T02:44:08;2.33;;;1.23;;
5931;SDS011;2991;49.368;8.528;2022-09-09T02:54:39;2.30;;;1.30;;
5931;SDS011;2991;49.368;8.528;2022-09-09T02:57:10;0.87;;;0.87;;
5931;SDS011;2991;49.368;8.528;2022-09-09T02:59:36;3.50;;;0.97;;
5931;SDS011;2991;49.368;8.528;2022-09-09T03:02:02;3.23;;;1.10;;
5931;SDS011;2991;49.368;8.528;2022-09-09T03:04:28;1.20;;;1.10;;
5931;SDS011;2991;49.368;8.528;2022-09-09T03:06:56;2.73;;;1.37;;
5931;SDS011;2991;49.368;8.528;2022-09-09T03:09:22;2.40;;;0.90;;
5931;SDS011;2991;49.368;8.528;2022-09-09T03:11:47;1.20;;;1.00;;
5931;SDS011;2991;49.368;8.528;2022-09-09T03:14:14;2.70;;;1.00;;
5931;SDS011;2991;49.368;8.528;2022-09-09T03:16:40;6.40;;;1.20;;
5931;SDS011;2991;49.368;8.528;2022-09-09T03:19:07;3.53;;;1.00;;
5931;SDS011;2991;49.368;8.528;2022-09-09T03:21:33;1.90;;;1.10;;
5931;SDS011;2991;49.368;8.528;2022-09-09T03:23:59;0.90;;;0.70;;
5931;SDS011;2991;49.368;8.528;2022-09-09T03:26:24;1.50;;;1.10;;
5931;SDS011;2991;49.368;8.528;2022-09-09T03:28:50;1.90;;;1.03;;
5931;SDS011;2991;49.368;8.528;2022-09-09T03:31:16;1.80;;;0.80;;
5931;SDS011;2991;49.368;8.528;2022-09-09T03:33:44;1.10;;;1.00;;
5931;SDS011;2991;49.368;8.528;2022-09-09T03:36:09;1.87;;;1.10;;
5931;SDS011;2991;49.368;8.528;2022-09-09T03:38:35;1.60;;;0.70;;
5931;SDS011;2991;49.368;8.528;2022-09-09T03:41:01;1.70;;;0.97;;
5931;SDS011;2991;49.368;8.528;2022-09-09T03:43:27;2.00;;;1.10;;
5931;SDS011;2991;49.368;8.528;2022-09-09T03:45:53;1.43;;;1.00;;
5931;SDS011;2991;49.368;8.528;2022-09-09T03:48:21;1.90;;;1.10;;
5931;SDS011;2991;49.368;8.528;2022-09-09T03:50:48;1.70;;;1.00;;
5931;SDS011;2991;49.368;8.528;2022-09-09T03:53:19;1.20;;;1.10;;
5931;SDS011;2991;49.368;8.528;2022-09-09T03:55:46;3.53;;;1.03;;
5931;SDS011;2991;49.368;8.528;2022-09-09T03:58:19;2.70;;;0.93;;
5931;SDS011;2991;49.368;8.528;2022-09-09T04:03:21;3.73;;;1.03;;
5931;SDS011;2991;49.368;8.528;2022-09-09T04:05:48;2.27;;;1.20;;
5931;SDS011;2991;49.368;8.528;2022-09-09T04:08:14;1.10;;;1.10;;
5931;SDS011;2991;49.368;8.528;2022-09-09T04:10:39;1.13;;;0.87;;
5931;SDS011;2991;49.368;8.528;2022-09-09T04:13:06;2.97;;;1.20;;
5931;SDS011;2991;49.368;8.528;2022-09-09T04:15:31;2.20;;;1.23;;
5931;SDS011;2991;49.368;8.528;2022-09-09T04:17:58;1.83;;;1.10;;
5931;SDS011;2991;49.368;8.528;2022-09-09T04:20:23;0.87;;;0.87;;
5931;SDS011;2991;49.368;8.528;2022-09-09T04:22:49;2.63;;;0.93;;
5931;SDS011;2991;49.368;8.528;2022-09-09T04:25:14;1.33;;;1.13;;
5931;SDS011;2991;49.368;8.528;2022-09-09T04:27:40;2.10;;;1.00;;
5931;SDS011;2991;49.368;8.528;2022-09-09T04:30:07;1.13;;;0.90;;
5931;SDS011;2991;49.368;8.528;2022-09-09T04:32:34;1.80;;;1.00;;
5931;SDS011;2991;49.368;8.528;2022-09-09T04:35:00;1.10;;;1.00;;
5931;SDS011;2991;49.368;8.528;2022-09-09T04:37:26;0.80;;;0.80;;
5931;SDS011;2991;49.368;8.528;2022-09-09T04:39:51;0.83;;;0.83;;
5931;SDS011;2991;49.368;8.528;2022-09-09T04:42:17;0.90;;;0.90;;
5931;SDS011;2991;49.368;8.528;2022-09-09T04:44:44;0.70;;;0.70;;
5931;SDS011;2991;49.368;8.528;2022-09-09T04:47:09;1.20;;;0.80;;
5931;SDS011;2991;49.368;8.528;2022-09-09T04:49:36;2.93;;;0.83;;
5931;SDS011;2991;49.368;8.528;2022-09-09T04:52:02;0.93;;;0.93;;
5931;SDS011;2991;49.368;8.528;2022-09-09T04:54:28;1.03;;;0.70;;
5931;SDS011;2991;49.368;8.528;2022-09-09T04:56:54;1.73;;;0.70;;
5931;SDS011;2991;49.368;8.528;2022-09-09T04:59:20;0.70;;;0.70;;
5931;SDS011;2991;49.368;8.528;2022-09-09T05:01:52;1.20;;;0.90;;
5931;SDS011;2991;49.368;8.528;2022-09-09T05:04:38;0.67;;;0.63;;
5931;SDS011;2991;49.368;8.528;2022-09-09T05:07:10;0.97;;;0.90;;
5931;SDS011;2991;49.368;8.528;2022-09-09T05:09:40;1.07;;;0.73;;
5931;SDS011;2991;49.368;8.528;2022-09-09T05:12:05;7.17;;;0.90;;
5931;SDS011;2991;49.368;8.528;2022-09-09T05:14:31;5.30;;;1.03;;
5931;SDS011;2991;49.368;8.528;2022-09-09T05:17:32;1.97;;;0.80;;
5931;SDS011;2991;49.368;8.528;2022-09-09T05:20:48;1.70;;;1.03;;
5931;SDS011;2991;49.368;8.528;2022-09-09T05:23:23;2.30;;;0.80;;
5931;SDS011;2991;49.368;8.528;2022-09-09T05:25:55;2.20;;;1.37;;
5931;SDS011;2991;49.368;8.528;2022-09-09T05:28:21;1.87;;;0.90;;
5931;SDS011;2991;49.368;8.528;2022-09-09T05:30:54;6.63;;;1.20;;
5931;SDS011;2991;49.368;8.528;2022-09-09T05:33:25;7.23;;;1.23;;
5931;SDS011;2991;49.368;8.528;2022-09-09T05:35:55;6.03;;;1.70;;
5931;SDS011;2991;49.368;8.528;2022-09-09T05:38:24;2.57;;;0.90;;
5931;SDS011;2991;49.368;8.528;2022-09-09T05:40:50;2.80;;;1.00;;
5931;SDS011;2991;49.368;8.528;2022-09-09T05:43:17;3.17;;;0.93;;
5931;SDS011;2991;49.368;8.528;2022-09-09T05:45:44;1.60;;;1.07;;
5931;SDS011;2991;49.368;8.528;2022-09-09T05:48:12;4.40;;;0.87;;
5931;SDS011;2991;49.368;8.528;2022-09-09T05:50:40;1.63;;;1.10;;
5931;SDS011;2991;49.368;8.528;2022-09-09T05:53:05;2.73;;;1.30;;
5931;SDS011;2991;49.368;8.528;2022-09-09T05:55:31;5.20;;;1.40;;
5931;SDS011;2991;49.368;8.528;2022-09-09T05:57:56;3.77;;;1.00;;
5931;SDS011;2991;49.368;8.528;2022-09-09T06:00:22;3.10;;;1.20;;
5931;SDS011;2991;49.368;8.528;2022-09-09T06:02:51;2.93;;;1.20;;
5931;SDS011;2991;49.368;8.528;2022-09-09T06:05:17;2.00;;;1.00;;
5931;SDS011;2991;49.368;8.528;2022-09-09T06:07:43;2.73;;;1.33;;
5931;SDS011;2991;49.368;8.528;2022-09-09T06:10:09;3.37;;;1.67;;
5931;SDS011;2991;49.368;8.528;2022-09-09T06:12:38;4.23;;;0.93;;
5931;SDS011;2991;49.368;8.528;2022-09-09T06:15:04;2.43;;;1.60;;
5931;SDS011;2991;49.368;8.528;2022-09-09T06:17:30;6.00;;;1.70;;
5931;SDS011;2991;49.368;8.528;2022-09-09T06:19:55;1.93;;;1.03;;
5931;SDS011;2991;49.368;8.528;2022-09-09T06:22:21;3.03;;;1.00;;
5931;SDS011;2991;49.368;8.528;2022-09-09T06:24:46;4.77;;;1.30;;
5931;SDS011;2991;49.368;8.528;2022-09-09T06:27:12;1.73;;;0.83;;
5931;SDS011;2991;49.368;8.528;2022-09-09T06:29:38;3.07;;;1.17;;
5931;SDS011;2991;49.368;8.528;2022-09-09T06:32:04;4.10;;;1.03;;
5931;SDS011;2991;49.368;8.528;2022-09-09T06:34:29;2.00;;;1.17;;
5931;SDS011;2991;49.368;8.528;2022-09-09T06:36:55;2.97;;;1.17;;
5931;SDS011;2991;49.368;8.528;2022-09-09T06:39:22;6.73;;;1.27;;
5931;SDS011;2991;49.368;8.528;2022-09-09T06:41:48;7.30;;;1.10;;
5931;SDS011;2991;49.368;8.528;2022-09-09T06:44:14;1.73;;;1.10;;
5931;SDS011;2991;49.368;8.528;2022-09-09T06:46:40;2.20;;;1.20;;
5931;SDS011;2991;49.368;8.528;2022-09-09T06:49:07;1.23;;;1.13;;
5931;SDS011;2991;49.368;8.528;2022-09-09T06:51:34;5.03;;;1.80;;
5931;SDS011;2991;49.368;8.528;2022-09-09T06:54:00;5.70;;;1.97;;
5931;SDS011;2991;49.368;8.528;2022-09-09T06:56:31;1.87;;;1.70;;
5931;SDS011;2991;49.368;8.528;2022-09-09T06:58:59;2.23;;;1.53;;
5931;SDS011;2991;49.368;8.528;2022-09-09T07:01:30;4.23;;;1.27;;
5931;SDS011;2991;49.368;8.528;2022-09-09T07:03:57;1.63;;;1.03;;
5931;SDS011;2991;49.368;8.528;2022-09-09T07:06:28;2.70;;;1.80;;
5931;SDS011;2991;49.368;8.528;2022-09-09T07:08:58;2.47;;;1.30;;
5931;SDS011;2991;49.368;8.528;2022-09-09T07:11:27;3.67;;;1.53;;
5931;SDS011;2991;49.368;8.528;2022-09-09T07:13:54;2.13;;;1.30;;
5931;SDS011;2991;49.368;8.528;2022-09-09T07:16:22;6.13;;;1.67;;
5931;SDS011;2991;49.368;8.528;2022-09-09T07:18:49;2.50;;;1.40;;
5931;SDS011;2991;49.368;8.528;2022-09-09T07:21:15;3.50;;;1.10;;
5931;SDS011;2991;49.368;8.528;2022-09-09T07:23:42;3.53;;;1.20;;
5931;SDS011;2991;49.368;8.528;2022-09-09T07:26:12;2.63;;;1.50;;
5931;SDS011;2991;49.368;8.528;2022-09-09T07:28:39;1.53;;;1.10;;
5931;SDS011;2991;49.368;8.528;2022-09-09T07:31:12;3.37;;;1.17;;
5931;SDS011;2991;49.368;8.528;2022-09-09T07:33:44;2.57;;;1.23;;
5931;SDS011;2991;49.368;8.528;2022-09-09T07:36:14;2.70;;;1.27;;
5931;SDS011;2991;49.368;8.528;2022-09-09T07:38:43;4.17;;;1.30;;
5931;SDS011;2991;49.368;8.528;2022-09-09T07:41:11;6.00;;;1.37;;
5931;SDS011;2991;49.368;8.528;2022-09-09T07:43:43;3.17;;;1.20;;
5931;SDS011;2991;49.368;8.528;2022-09-09T07:46:10;1.37;;;1.10;;
5931;SDS011;2991;49.368;8.528;2022-09-09T07:48:38;2.00;;;0.97;;
5931;SDS011;2991;49.368;8.528;2022-09-09T07:53:32;2.00;;;1.17;;
5931;SDS011;2991;49.368;8.528;2022-09-09T07:56:04;3.00;;;1.20;;
5931;SDS011;2991;49.368;8.528;2022-09-09T07:58:31;9.83;;;1.60;;
5931;SDS011;2991;49.368;8.528;2022-09-09T08:00:56;3.07;;;1.23;;
5931;SDS011;2991;49.368;8.528;2022-09-09T08:03:25;11.30;;;1.83;;
5931;SDS011;2991;49.368;8.528;2022-09-09T08:05:50;14.13;;;2.00;;
5931;SDS011;2991;49.368;8.528;2022-09-09T08:08:16;5.87;;;1.80;;
5931;SDS011;2991;49.368;8.528;2022-09-09T08:10:42;5.07;;;1.10;;
5931;SDS011;2991;49.368;8.528;2022-09-09T08:13:08;2.37;;;1.07;;
5931;SDS011;2991;49.368;8.528;2022-09-09T08:15:33;3.83;;;1.70;;
5931;SDS011;2991;49.368;8.528;2022-09-09T08:17:59;7.40;;;1.90;;
5931;SDS011;2991;49.368;8.528;2022-09-09T08:20:25;10.33;;;1.90;;
5931;SDS011;2991;49.368;8.528;2022-09-09T08:22:50;4.43;;;1.30;;
5931;SDS011;2991;49.368;8.528;2022-09-09T08:25:19;10.27;;;1.70;;
5931;SDS011;2991;49.368;8.528;2022-09-09T08:27:45;9.00;;;1.53;;
5931;SDS011;2991;49.368;8.528;2022-09-09T08:30:13;11.73;;;2.53;;
5931;SDS011;2991;49.368;8.528;2022-09-09T08:32:39;2.43;;;1.33;;
5931;SDS011;2991;49.368;8.528;2022-09-09T08:35:05;30.10;;;2.40;;
5931;SDS011;2991;49.368;8.528;2022-09-09T08:37:31;15.27;;;1.50;;
5931;SDS011;2991;49.368;8.528;2022-09-09T08:39:57;21.50;;;3.70;;
5931;SDS011;2991;49.368;8.528;2022-09-09T08:42:27;123.47;;;9.47;;
5931;SDS011;2991;49.368;8.528;2022-09-09T08:45:19;144.27;;;10.70;;
5931;SDS011;2991;49.368;8.528;2022-09-09T08:48:44;84.23;;;7.20;;
5931;SDS011;2991;49.368;8.528;2022-09-09T08:50:57;15.50;;;2.07;;
5931;SDS011;2991;49.368;8.528;2022-09-09T08:53:30;7.97;;;1.90;;
5931;SDS011;2991;49.368;8.528;2022-09-09T08:56:09;3.53;;;1.57;;
5931;SDS011;2991;49.368;8.528;2022-09-09T08:58:47;4.37;;;1.13;;
5931;SDS011;2991;49.368;8.528;2022-09-09T09:03:49;5.50;;;1.53;;
5931;SDS011;2991;49.368;8.528;2022-09-09T09:09:16;3.63;;;1.10;;
5931;SDS011;2991;49.368;8.528;2022-09-09T09:14:23;4.60;;;1.37;;
5931;SDS011;2991;49.368;8.528;2022-09-09T09:19:23;3.73;;;1.40;;
5931;SDS011;2991;49.368;8.528;2022-09-09T09:24:27;4.30;;;1.20;;
5931;SDS011;2991;49.368;8.528;2022-09-09T09:27:16;3.23;;;1.13;;
5931;SDS011;2991;49.368;8.528;2022-09-09T09:29:59;2.63;;;1.30;;
5931;SDS011;2991;49.368;8.528;2022-09-09T09:32:44;4.70;;;1.10;;
5931;SDS011;2991;49.368;8.528;2022-09-09T09:35:19;4.93;;;1.13;;
5931;SDS011;2991;49.368;8.528;2022-09-09T09:37:45;2.50;;;1.20;;
5931;SDS011;2991;49.368;8.528;2022-09-09T09:40:17;1.77;;;0.80;;
5931;SDS011;2991;49.368;8.528;2022-09-09T09:42:57;2.57;;;1.07;;
5931;SDS011;2991;49.368;8.528;2022-09-09T09:48:18;4.90;;;1.40;;
5931;SDS011;2991;49.368;8.528;2022-09-09T09:50:57;3.90;;;1.33;;
5931;SDS011;2991;49.368;8.528;2022-09-09T09:53:36;1.30;;;0.97;;
5931;SDS011;2991;49.368;8.528;2022-09-09T09:56:05;2.90;;;1.40;;
5931;SDS011;2991;49.368;8.528;2022-09-09T09:58:49;3.30;;;1.37;;
5931;SDS011;2991;49.368;8.528;2022-09-09T10:01:36;2.43;;;1.43;;
5931;SDS011;2991;49.368;8.528;2022-09-09T10:07:21;5.27;;;1.60;;
5931;SDS011;2991;49.368;8.528;2022-09-09T10:10:50;4.57;;;1.50;;
5931;SDS011;2991;49.368;8.528;2022-09-09T10:51:37;3.70;;;1.20;;
5931;SDS011;2991;49.368;8.528;2022-09-09T10:56:36;6.60;;;1.40;;
5931;SDS011;2991;49.368;8.528;2022-09-09T10:59:21;5.90;;;1.60;;
5931;SDS011;2991;49.368;8.528;2022-09-09T11:02:17;8.90;;;1.40;;
5931;SDS011;2991;49.368;8.528;2022-09-09T11:07:42;6.60;;;1.37;;
5931;SDS011;2991;49.368;8.528;2022-09-09T11:13:10;5.50;;;1.40;;
5931;SDS011;2991;49.368;8.528;2022-09-09T11:15:45;9.60;;;1.37;;
5931;SDS011;2991;49.368;8.528;2022-09-09T11:18:19;11.37;;;1.73;;
5931;SDS011;2991;49.368;8.528;2022-09-09T11:24:27;4.97;;;1.70;;
5931;SDS011;2991;49.368;8.528;2022-09-09T11:27:00;7.20;;;1.53;;
5931;SDS011;2991;49.368;8.528;2022-09-09T11:41:05;6.07;;;1.70;;
5931;SDS011;2991;49.368;8.528;2022-09-09T11:43:43;5.03;;;1.87;;
5931;SDS011;2991;49.368;8.528;2022-09-09T11:46:11;3.10;;;1.20;;
5931;SDS011;2991;49.368;8.528;2022-09-09T11:48:57;3.47;;;1.13;;
5931;SDS011;2991;49.368;8.528;2022-09-09T11:51:26;6.63;;;1.80;;
5931;SDS011;2991;49.368;8.528;2022-09-09T11:59:00;8.63;;;1.50;;
5931;SDS011;2991;49.368;8.528;2022-09-09T12:01:33;4.73;;;1.80;;
5931;SDS011;2991;49.368;8.528;2022-09-09T12:04:10;4.97;;;1.53;;
5931;SDS011;2991;49.368;8.528;2022-09-09T12:06:44;5.50;;;1.47;;
5931;SDS011;2991;49.368;8.528;2022-09-09T12:14:54;15.63;;;2.03;;
5931;SDS011;2991;49.368;8.528;2022-09-09T12:20:26;21.37;;;2.70;;
5931;SDS011;2991;49.368;8.528;2022-09-09T12:26:07;13.83;;;2.10;;
5931;SDS011;2991;49.368;8.528;2022-09-09T12:34:09;15.20;;;1.67;;
5931;SDS011;2991;49.368;8.528;2022-09-09T12:36:44;13.10;;;1.80;;
5931;SDS011;2991;49.368;8.528;2022-09-09T12:39:17;4.03;;;1.40;;
5931;SDS011;2991;49.368;8.528;2022-09-09T12:42:17;3.63;;;1.73;;
5931;SDS011;2991;49.368;8.528;2022-09-09T12:44:57;4.70;;;1.27;;
5931;SDS011;2991;49.368;8.528;2022-09-09T12:47:46;7.70;;;1.40;;
5931;SDS011;2991;49.368;8.528;2022-09-09T12:50:15;4.57;;;1.50;;
5931;SDS011;2991;49.368;8.528;2022-09-09T12:52:46;3.80;;;1.50;;
5931;SDS011;2991;49.368;8.528;2022-09-09T12:55:18;4.40;;;1.30;;
5931;SDS011;2991;49.368;8.528;2022-09-09T12:57:50;11.03;;;1.97;;
5931;SDS011;2991;49.368;8.528;2022-09-09T13:00:17;5.57;;;1.17;;
5931;SDS011;2991;49.368;8.528;2022-09-09T13:02:58;4.47;;;1.33;;
5931;SDS011;2991;49.368;8.528;2022-09-09T13:05:27;3.50;;;1.53;;
5931;SDS011;2991;49.368;8.528;2022-09-09T13:08:02;3.20;;;1.23;;
5931;SDS011;2991;49.368;8.528;2022-09-09T13:10:29;5.23;;;1.10;;
5931;SDS011;2991;49.368;8.528;2022-09-09T13:12:59;6.47;;;1.57;;
5931;SDS011;2991;49.368;8.528;2022-09-09T13:15:26;4.23;;;1.17;;
5931;SDS011;2991;49.368;8.528;2022-09-09T13:17:54;4.30;;;1.40;;
5931;SDS011;2991;49.368;8.528;2022-09-09T13:20:22;2.63;;;1.40;;
5931;SDS011;2991;49.368;8.528;2022-09-09T13:22:49;2.07;;;1.40;;
5931;SDS011;2991;49.368;8.528;2022-09-09T13:25:25;4.10;;;1.17;;
5931;SDS011;2991;49.368;8.528;2022-09-09T13:30:28;2.43;;;1.17;;
5931;SDS011;2991;49.368;8.528;2022-09-09T13:36:12;4.60;;;1.40;;
5931;SDS011;2991;49.368;8.528;2022-09-09T13:38:36;2.00;;;1.13;;
5931;SDS011;2991;49.368;8.528;2022-09-09T13:41:04;2.80;;;1.10;;
5931;SDS011;2991;49.368;8.528;2022-09-09T13:43:32;1.53;;;1.20;;
